sensor_id;sensor_type;location;lat;lon;timestamp;pressure;altitude;pressure_sealevel;temperature;humidity
34983;BME280;21187;50.976;13.720;2023-01-29T00:01:11;99389.22;;;0.42;55.43
34983;BME280;21187;50.976;13.720;2023-01-29T00:06:14;99381.75;;;0.39;55.40
34983;BME280;21187;50.976;13.720;2023-01-29T00:11:16;99370.88;;;0.45;55.24
34983;BME280;21187;50.976;13.720;2023-01-29T00:16:19;99363.59;;;0.68;55.16
34983;BME280;21187;50.976;13.720;2023-01-29T00:21:22;99358.59;;;0.77;55.03
34983;BME280;21187;50.976;13.720;2023-01-29T00:26:24;99358.88;;;0.80;55.06
34983;BME280;21187;50.976;13.720;2023-01-29T00:31:26;99356.16;;;0.70;54.81
34983;BME280;21187;50.976;13.720;2023-01-29T00:36:28;99353.00;;;0.78;55.22
34983;BME280;21187;50.976;13.720;2023-01-29T00:41:31;99341.34;;;0.85;54.96
34983;BME280;21187;50.976;13.720;2023-01-29T00:46:51;99330.81;;;0.68;54.95
34983;BME280;21187;50.976;13.720;2023-01-29T00:51:54;99327.78;;;0.59;55.13
34983;BME280;21187;50.976;13.720;2023-01-29T00:57:14;99325.09;;;0.54;54.97
34983;BME280;21187;50.976;13.720;2023-01-29T01:02:16;99320.28;;;0.51;55.41
34983;BME280;21187;50.976;13.720;2023-01-29T01:07:37;99327.72;;;0.48;55.00
34983;BME280;21187;50.976;13.720;2023-01-29T01:12:39;99343.22;;;0.57;54.79
34983;BME280;21187;50.976;13.720;2023-01-29T01:17:41;99347.59;;;0.68;54.80
34983;BME280;21187;50.976;13.720;2023-01-29T01:22:43;99349.28;;;0.79;54.71
34983;BME280;21187;50.976;13.720;2023-01-29T01:27:45;99340.81;;;0.88;54.80
34983;BME280;21187;50.976;13.720;2023-01-29T01:32:47;99326.94;;;0.91;54.91
34983;BME280;21187;50.976;13.720;2023-01-29T01:37:49;99326.94;;;0.91;54.81
34983;BME280;21187;50.976;13.720;2023-01-29T01:42:58;99323.75;;;0.89;54.65
34983;BME280;21187;50.976;13.720;2023-01-29T01:48:05;99315.69;;;0.78;54.75
34983;BME280;21187;50.976;13.720;2023-01-29T01:53:11;99321.44;;;0.65;54.74
34983;BME280;21187;50.976;13.720;2023-01-29T01:58:37;99312.31;;;0.56;54.90
34983;BME280;21187;50.976;13.720;2023-01-29T02:03:55;99315.00;;;0.56;54.81
34983;BME280;21187;50.976;13.720;2023-01-29T02:09:19;99315.44;;;0.47;54.53
34983;BME280;21187;50.976;13.720;2023-01-29T02:14:52;99299.44;;;0.47;54.55
34983;BME280;21187;50.976;13.720;2023-01-29T02:36:30;99296.59;;;0.22;55.10
34983;BME280;21187;50.976;13.720;2023-01-29T02:46:47;99289.50;;;0.05;54.76
34983;BME280;21187;50.976;13.720;2023-01-29T02:52:06;99300.63;;;-0.03;55.13
34983;BME280;21187;50.976;13.720;2023-01-29T03:02:24;99299.00;;;-0.04;54.87
34983;BME280;21187;50.976;13.720;2023-01-29T03:07:37;99297.41;;;-0.05;55.07
34983;BME280;21187;50.976;13.720;2023-01-29T03:13:07;99302.53;;;-0.26;54.98
34983;BME280;21187;50.976;13.720;2023-01-29T03:18:20;99302.47;;;-0.31;55.46
34983;BME280;21187;50.976;13.720;2023-01-29T03:23:31;99304.03;;;-0.35;55.32
34983;BME280;21187;50.976;13.720;2023-01-29T03:28:53;99301.81;;;-0.43;55.24
34983;BME280;21187;50.976;13.720;2023-01-29T03:34:17;99301.69;;;-0.54;54.75
34983;BME280;21187;50.976;13.720;2023-01-29T03:39:27;99305.41;;;-0.55;54.85
34983;BME280;21187;50.976;13.720;2023-01-29T03:45:05;99304.53;;;-0.60;54.53
34983;BME280;21187;50.976;13.720;2023-01-29T03:50:40;99312.34;;;-0.54;54.88
34983;BME280;21187;50.976;13.720;2023-01-29T03:56:30;99292.03;;;-0.60;54.67
34983;BME280;21187;50.976;13.720;2023-01-29T04:01:42;99293.03;;;-0.66;54.79
34983;BME280;21187;50.976;13.720;2023-01-29T04:06:48;99306.13;;;-0.81;54.62
34983;BME280;21187;50.976;13.720;2023-01-29T04:12:03;99292.63;;;-0.97;55.35
34983;BME280;21187;50.976;13.720;2023-01-29T04:17:18;99287.97;;;-0.90;54.82
34983;BME280;21187;50.976;13.720;2023-01-29T04:22:47;99270.53;;;-0.80;54.69
34983;BME280;21187;50.976;13.720;2023-01-29T04:44:07;99241.81;;;-0.78;54.73
34983;BME280;21187;50.976;13.720;2023-01-29T04:49:31;99239.00;;;-0.89;54.57
34983;BME280;21187;50.976;13.720;2023-01-29T04:55:11;99218.81;;;-0.90;55.07
34983;BME280;21187;50.976;13.720;2023-01-29T05:00:38;99202.34;;;-0.87;54.53
34983;BME280;21187;50.976;13.720;2023-01-29T05:05:44;99206.19;;;-0.77;54.75
34983;BME280;21187;50.976;13.720;2023-01-29T05:10:49;99189.06;;;-0.87;55.05
34983;BME280;21187;50.976;13.720;2023-01-29T05:20:55;99183.06;;;-0.99;55.17
34983;BME280;21187;50.976;13.720;2023-01-29T05:25:58;99183.06;;;-0.99;54.95
34983;BME280;21187;50.976;13.720;2023-01-29T05:31:00;99184.78;;;-0.88;54.81
34983;BME280;21187;50.976;13.720;2023-01-29T05:36:02;99182.88;;;-0.92;54.75
34983;BME280;21187;50.976;13.720;2023-01-29T05:41:04;99178.75;;;-1.05;54.69
34983;BME280;21187;50.976;13.720;2023-01-29T05:46:06;99183.56;;;-1.02;55.02
34983;BME280;21187;50.976;13.720;2023-01-29T05:51:08;99186.78;;;-1.00;54.79
34983;BME280;21187;50.976;13.720;2023-01-29T05:56:10;99185.97;;;-1.01;55.14
34983;BME280;21187;50.976;13.720;2023-01-29T06:01:17;99181.34;;;-1.10;55.16
34983;BME280;21187;50.976;13.720;2023-01-29T06:06:19;99180.69;;;-1.18;55.20
34983;BME280;21187;50.976;13.720;2023-01-29T06:11:21;99193.88;;;-1.28;54.91
34983;BME280;21187;50.976;13.720;2023-01-29T06:16:23;99194.28;;;-1.36;55.20
34983;BME280;21187;50.976;13.720;2023-01-29T06:21:25;99179.97;;;-1.35;55.22
34983;BME280;21187;50.976;13.720;2023-01-29T06:26:27;99195.53;;;-1.22;55.00
34983;BME280;21187;50.976;13.720;2023-01-29T06:31:29;99218.75;;;-1.17;55.16
34983;BME280;21187;50.976;13.720;2023-01-29T06:36:40;99226.91;;;-1.24;55.02
34983;BME280;21187;50.976;13.720;2023-01-29T06:41:42;99239.44;;;-1.19;55.40
34983;BME280;21187;50.976;13.720;2023-01-29T06:46:45;99238.53;;;-1.08;55.25
34983;BME280;21187;50.976;13.720;2023-01-29T06:51:47;99241.56;;;-0.99;55.11
34983;BME280;21187;50.976;13.720;2023-01-29T06:56:50;99251.19;;;-0.93;55.48
34983;BME280;21187;50.976;13.720;2023-01-29T07:01:52;99270.44;;;-0.86;54.93
34983;BME280;21187;50.976;13.720;2023-01-29T07:06:54;99278.53;;;-0.75;55.09
34983;BME280;21187;50.976;13.720;2023-01-29T07:11:56;99280.16;;;-0.74;55.11
34983;BME280;21187;50.976;13.720;2023-01-29T07:16:58;99284.88;;;-0.81;55.03
34983;BME280;21187;50.976;13.720;2023-01-29T07:21:59;99295.97;;;-0.85;55.28
34983;BME280;21187;50.976;13.720;2023-01-29T07:27:04;99297.13;;;-0.80;55.29
34983;BME280;21187;50.976;13.720;2023-01-29T07:32:06;99295.31;;;-0.75;55.10
34983;BME280;21187;50.976;13.720;2023-01-29T07:37:08;99287.22;;;-0.63;55.35
34983;BME280;21187;50.976;13.720;2023-01-29T07:42:10;99276.13;;;-0.55;55.25
34983;BME280;21187;50.976;13.720;2023-01-29T07:47:12;99276.25;;;-0.44;55.19
34983;BME280;21187;50.976;13.720;2023-01-29T07:52:16;99275.06;;;-0.54;54.61
34983;BME280;21187;50.976;13.720;2023-01-29T07:57:22;99267.09;;;-0.54;55.40
34983;BME280;21187;50.976;13.720;2023-01-29T08:02:24;99254.38;;;-0.46;55.17
34983;BME280;21187;50.976;13.720;2023-01-29T08:07:26;99251.25;;;-0.43;54.92
34983;BME280;21187;50.976;13.720;2023-01-29T08:12:28;99246.19;;;-0.45;55.41
34983;BME280;21187;50.976;13.720;2023-01-29T08:17:30;99231.13;;;-0.34;55.00
34983;BME280;21187;50.976;13.720;2023-01-29T08:22:31;99225.28;;;-0.31;55.11
34983;BME280;21187;50.976;13.720;2023-01-29T08:27:34;99202.97;;;-0.25;55.08
34983;BME280;21187;50.976;13.720;2023-01-29T08:32:36;99194.00;;;-0.13;55.18
34983;BME280;21187;50.976;13.720;2023-01-29T08:37:38;99194.09;;;-0.03;54.99
34983;BME280;21187;50.976;13.720;2023-01-29T08:42:39;99208.25;;;0.03;54.87
34983;BME280;21187;50.976;13.720;2023-01-29T08:47:46;99203.22;;;0.06;54.78
34983;BME280;21187;50.976;13.720;2023-01-29T08:52:48;99214.47;;;0.13;55.13
34983;BME280;21187;50.976;13.720;2023-01-29T08:57:50;99231.03;;;0.21;55.00
34983;BME280;21187;50.976;13.720;2023-01-29T09:02:52;99233.16;;;0.19;55.23
34983;BME280;21187;50.976;13.720;2023-01-29T09:07:57;99219.28;;;0.16;55.17
34983;BME280;21187;50.976;13.720;2023-01-29T09:13:00;99201.47;;;0.22;55.17
34983;BME280;21187;50.976;13.720;2023-01-29T09:18:04;99186.66;;;0.37;55.17
34983;BME280;21187;50.976;13.720;2023-01-29T09:23:08;99202.16;;;0.40;55.08
34983;BME280;21187;50.976;13.720;2023-01-29T09:28:11;99200.59;;;0.49;54.78
34983;BME280;21187;50.976;13.720;2023-01-29T09:33:13;99181.75;;;0.61;54.96
34983;BME280;21187;50.976;13.720;2023-01-29T09:38:16;99172.66;;;0.62;55.03
34983;BME280;21187;50.976;13.720;2023-01-29T09:43:22;99191.63;;;0.65;55.08
34983;BME280;21187;50.976;13.720;2023-01-29T09:48:29;99196.69;;;0.67;54.88
34983;BME280;21187;50.976;13.720;2023-01-29T09:53:39;99181.28;;;0.74;54.99
34983;BME280;21187;50.976;13.720;2023-01-29T09:58:44;99176.50;;;0.81;54.83
34983;BME280;21187;50.976;13.720;2023-01-29T10:25:10;99143.56;;;1.29;54.72
34983;BME280;21187;50.976;13.720;2023-01-29T10:30:20;99143.06;;;1.32;54.78
34983;BME280;21187;50.976;13.720;2023-01-29T10:35:28;99140.38;;;1.42;54.61
34983;BME280;21187;50.976;13.720;2023-01-29T10:40:39;99145.22;;;1.51;54.54
34983;BME280;21187;50.976;13.720;2023-01-29T10:46:13;99154.81;;;1.57;54.82
34983;BME280;21187;50.976;13.720;2023-01-29T10:51:51;99132.94;;;1.60;54.61
34983;BME280;21187;50.976;13.720;2023-01-29T11:02:14;99122.50;;;1.63;54.87
34983;BME280;21187;50.976;13.720;2023-01-29T11:07:18;99108.88;;;1.75;54.85
34983;BME280;21187;50.976;13.720;2023-01-29T11:12:24;99107.31;;;1.74;55.04
34983;BME280;21187;50.976;13.720;2023-01-29T11:17:31;99092.06;;;1.59;54.66
34983;BME280;21187;50.976;13.720;2023-01-29T11:22:33;99080.06;;;1.57;54.83
34983;BME280;21187;50.976;13.720;2023-01-29T11:27:42;99068.59;;;1.51;54.79
34983;BME280;21187;50.976;13.720;2023-01-29T11:32:49;99052.84;;;1.60;54.89
34983;BME280;21187;50.976;13.720;2023-01-29T11:38:26;99040.53;;;1.64;54.88
34983;BME280;21187;50.976;13.720;2023-01-29T11:43:29;99035.44;;;1.73;54.47
34983;BME280;21187;50.976;13.720;2023-01-29T11:48:50;99029.28;;;1.82;54.61
34983;BME280;21187;50.976;13.720;2023-01-29T11:54:14;99044.75;;;1.96;54.47
34983;BME280;21187;50.976;13.720;2023-01-29T12:04:41;99034.56;;;2.03;54.58
34983;BME280;21187;50.976;13.720;2023-01-29T12:09:57;99014.03;;;2.04;54.16
34983;BME280;21187;50.976;13.720;2023-01-29T12:15:21;99015.06;;;2.08;54.29
34983;BME280;21187;50.976;13.720;2023-01-29T12:20:42;99006.22;;;2.12;54.14
34983;BME280;21187;50.976;13.720;2023-01-29T12:26:00;99007.53;;;2.20;54.17
34983;BME280;21187;50.976;13.720;2023-01-29T12:36:40;98968.16;;;2.36;53.72
34983;BME280;21187;50.976;13.720;2023-01-29T12:46:59;98957.41;;;2.46;54.07
34983;BME280;21187;50.976;13.720;2023-01-29T12:52:15;98972.38;;;2.53;54.10
34983;BME280;21187;50.976;13.720;2023-01-29T12:57:46;98964.59;;;2.56;54.20
34983;BME280;21187;50.976;13.720;2023-01-29T13:02:56;98958.97;;;2.58;54.16
34983;BME280;21187;50.976;13.720;2023-01-29T13:08:06;98960.56;;;2.59;54.33
34983;BME280;21187;50.976;13.720;2023-01-29T13:23:56;98920.13;;;2.71;54.31
34983;BME280;21187;50.976;13.720;2023-01-29T13:29:01;98926.72;;;2.78;54.29
34983;BME280;21187;50.976;13.720;2023-01-29T13:34:24;98921.63;;;2.82;54.00
34983;BME280;21187;50.976;13.720;2023-01-29T13:39:35;98908.53;;;2.80;54.31
34983;BME280;21187;50.976;13.720;2023-01-29T13:44:49;98923.50;;;2.81;54.28
34983;BME280;21187;50.976;13.720;2023-01-29T13:54:59;98931.78;;;2.85;54.28
34983;BME280;21187;50.976;13.720;2023-01-29T14:00:03;98934.72;;;2.83;54.40
34983;BME280;21187;50.976;13.720;2023-01-29T14:10:33;98917.22;;;2.96;54.54
34983;BME280;21187;50.976;13.720;2023-01-29T14:15:36;98913.50;;;2.92;54.11
34983;BME280;21187;50.976;13.720;2023-01-29T14:20:52;98917.78;;;2.93;54.39
34983;BME280;21187;50.976;13.720;2023-01-29T14:25:57;98915.16;;;2.88;53.49
34983;BME280;21187;50.976;13.720;2023-01-29T14:31:00;98921.63;;;2.82;54.21
34983;BME280;21187;50.976;13.720;2023-01-29T14:36:05;98901.03;;;2.82;54.11
34983;BME280;21187;50.976;13.720;2023-01-29T14:41:32;98909.09;;;2.77;54.04
34983;BME280;21187;50.976;13.720;2023-01-29T14:51:40;98910.72;;;2.73;54.18
34983;BME280;21187;50.976;13.720;2023-01-29T15:01:54;98929.47;;;2.73;54.24
34983;BME280;21187;50.976;13.720;2023-01-29T15:18:25;98922.25;;;2.69;54.92
34983;BME280;21187;50.976;13.720;2023-01-29T15:23:33;98920.38;;;2.69;54.68
34983;BME280;21187;50.976;13.720;2023-01-29T15:28:35;98925.72;;;2.69;54.54
34983;BME280;21187;50.976;13.720;2023-01-29T15:33:41;98902.75;;;2.68;54.58
34983;BME280;21187;50.976;13.720;2023-01-29T15:38:43;98910.84;;;2.58;54.64
34983;BME280;21187;50.976;13.720;2023-01-29T15:43:48;98903.91;;;2.52;54.76
34983;BME280;21187;50.976;13.720;2023-01-29T15:48:50;98897.00;;;2.45;54.38
34983;BME280;21187;50.976;13.720;2023-01-29T15:53:56;98891.19;;;2.38;54.70
34983;BME280;21187;50.976;13.720;2023-01-29T15:59:01;98895.78;;;2.32;54.83
34983;BME280;21187;50.976;13.720;2023-01-29T16:04:14;98892.78;;;2.39;54.72
34983;BME280;21187;50.976;13.720;2023-01-29T16:09:21;98886.41;;;2.35;54.90
34983;BME280;21187;50.976;13.720;2023-01-29T16:14:27;98881.13;;;2.25;55.01
34983;BME280;21187;50.976;13.720;2023-01-29T16:19:30;98881.13;;;2.25;54.83
34983;BME280;21187;50.976;13.720;2023-01-29T16:24:34;98871.53;;;2.19;54.94
34983;BME280;21187;50.976;13.720;2023-01-29T16:29:37;98868.56;;;2.20;55.29
34983;BME280;21187;50.976;13.720;2023-01-29T16:34:42;98864.00;;;2.26;55.46
34983;BME280;21187;50.976;13.720;2023-01-29T16:39:47;98856.44;;;2.38;54.96
34983;BME280;21187;50.976;13.720;2023-01-29T16:45:25;98859.34;;;2.42;55.34
34983;BME280;21187;50.976;13.720;2023-01-29T16:50:31;98851.84;;;2.44;55.42
34983;BME280;21187;50.976;13.720;2023-01-29T16:56:01;98841.38;;;2.47;54.93
34983;BME280;21187;50.976;13.720;2023-01-29T17:01:10;98839.78;;;2.46;55.02
34983;BME280;21187;50.976;13.720;2023-01-29T17:06:18;98829.09;;;2.46;55.24
34983;BME280;21187;50.976;13.720;2023-01-29T17:11:36;98835.47;;;2.50;55.17
34983;BME280;21187;50.976;13.720;2023-01-29T17:16:49;98831.81;;;2.41;54.67
34983;BME280;21187;50.976;13.720;2023-01-29T17:21:52;98832.38;;;2.38;55.07
34983;BME280;21187;50.976;13.720;2023-01-29T17:26:54;98831.25;;;2.44;54.86
34983;BME280;21187;50.976;13.720;2023-01-29T17:31:56;98832.38;;;2.38;54.73
34983;BME280;21187;50.976;13.720;2023-01-29T17:37:01;98823.50;;;2.43;54.79
34983;BME280;21187;50.976;13.720;2023-01-29T17:42:03;98822.72;;;2.42;54.84
34983;BME280;21187;50.976;13.720;2023-01-29T17:47:05;98824.88;;;2.40;54.39
34983;BME280;21187;50.976;13.720;2023-01-29T17:52:08;98821.47;;;2.29;53.90
34983;BME280;21187;50.976;13.720;2023-01-29T17:57:12;98816.97;;;2.25;54.06
34983;BME280;21187;50.976;13.720;2023-01-29T18:02:15;98814.84;;;2.22;53.77
34983;BME280;21187;50.976;13.720;2023-01-29T18:07:30;98815.16;;;2.15;53.69
34983;BME280;21187;50.976;13.720;2023-01-29T18:12:32;98818.13;;;2.08;53.25
34983;BME280;21187;50.976;13.720;2023-01-29T18:17:34;98812.31;;;2.01;53.08
34983;BME280;21187;50.976;13.720;2023-01-29T18:22:36;98801.94;;;1.94;53.12
34983;BME280;21187;50.976;13.720;2023-01-29T18:27:38;98799.00;;;1.96;53.26
34983;BME280;21187;50.976;13.720;2023-01-29T18:32:40;98791.03;;;1.86;53.17
34983;BME280;21187;50.976;13.720;2023-01-29T18:37:42;98787.88;;;1.83;52.75
34983;BME280;21187;50.976;13.720;2023-01-29T18:42:45;98779.91;;;1.73;52.77
34983;BME280;21187;50.976;13.720;2023-01-29T18:47:47;98772.97;;;1.72;52.81
34983;BME280;21187;50.976;13.720;2023-01-29T18:52:50;98779.41;;;1.66;52.42
34983;BME280;21187;50.976;13.720;2023-01-29T18:57:52;98763.69;;;1.59;52.77
34983;BME280;21187;50.976;13.720;2023-01-29T19:03:14;98755.69;;;1.54;52.36
34983;BME280;21187;50.976;13.720;2023-01-29T19:08:17;98744.22;;;1.54;52.62
34983;BME280;21187;50.976;13.720;2023-01-29T19:13:19;98731.66;;;1.59;52.96
34983;BME280;21187;50.976;13.720;2023-01-29T19:18:20;98723.38;;;1.56;52.86
34983;BME280;21187;50.976;13.720;2023-01-29T19:23:22;98720.19;;;1.59;53.15
34983;BME280;21187;50.976;13.720;2023-01-29T19:28:24;98714.81;;;1.64;53.05
34983;BME280;21187;50.976;13.720;2023-01-29T19:33:26;98709.22;;;1.60;53.09
34983;BME280;21187;50.976;13.720;2023-01-29T19:38:29;98707.34;;;1.61;53.12
34983;BME280;21187;50.976;13.720;2023-01-29T19:43:34;98711.66;;;1.52;53.25
34983;BME280;21187;50.976;13.720;2023-01-29T19:48:36;98699.44;;;1.45;52.97
34983;BME280;21187;50.976;13.720;2023-01-29T19:53:39;98691.44;;;1.45;53.01
34983;BME280;21187;50.976;13.720;2023-01-29T19:58:44;98684.50;;;1.44;53.15
34983;BME280;21187;50.976;13.720;2023-01-29T20:03:47;98691.16;;;1.47;52.90
34983;BME280;21187;50.976;13.720;2023-01-29T20:08:50;98687.94;;;1.45;52.57
34983;BME280;21187;50.976;13.720;2023-01-29T20:13:52;98695.22;;;1.34;53.04
34983;BME280;21187;50.976;13.720;2023-01-29T20:18:55;98692.88;;;1.27;52.70
34983;BME280;21187;50.976;13.720;2023-01-29T20:24:15;98696.44;;;1.07;52.75
34983;BME280;21187;50.976;13.720;2023-01-29T20:29:17;98681.50;;;1.06;52.74
34983;BME280;21187;50.976;13.720;2023-01-29T20:34:19;98682.06;;;0.98;52.67
34983;BME280;21187;50.976;13.720;2023-01-29T20:39:21;98665.06;;;0.89;52.65
34983;BME280;21187;50.976;13.720;2023-01-29T20:44:23;98663.44;;;0.88;52.89
34983;BME280;21187;50.976;13.720;2023-01-29T20:49:25;98657.88;;;0.79;52.79
34983;BME280;21187;50.976;13.720;2023-01-29T20:54:28;98655.50;;;0.72;52.74
34983;BME280;21187;50.976;13.720;2023-01-29T20:59:33;98654.97;;;0.75;52.69
34983;BME280;21187;50.976;13.720;2023-01-29T21:04:35;98639.81;;;0.65;52.66
34983;BME280;21187;50.976;13.720;2023-01-29T21:09:37;98629.44;;;0.59;52.74
34983;BME280;21187;50.976;13.720;2023-01-29T21:14:39;98618.78;;;0.54;52.41
34983;BME280;21187;50.976;13.720;2023-01-29T21:19:41;98600.69;;;0.51;52.65
34983;BME280;21187;50.976;13.720;2023-01-29T21:24:44;98588.47;;;0.39;52.29
34983;BME280;21187;50.976;13.720;2023-01-29T21:29:46;98579.41;;;0.35;52.62
34983;BME280;21187;50.976;13.720;2023-01-29T21:34:49;98557.34;;;0.29;52.00
34983;BME280;21187;50.976;13.720;2023-01-29T21:39:53;98566.09;;;0.35;51.92
34983;BME280;21187;50.976;13.720;2023-01-29T21:44:55;98567.44;;;0.32;51.86
34983;BME280;21187;50.976;13.720;2023-01-29T21:49:57;98579.41;;;0.40;51.78
34983;BME280;21187;50.976;13.720;2023-01-29T21:54:58;98563.97;;;0.37;51.76
34983;BME280;21187;50.976;13.720;2023-01-29T22:00:00;98530.38;;;0.41;51.58
34983;BME280;21187;50.976;13.720;2023-01-29T22:05:06;98525.56;;;0.43;51.42
34983;BME280;21187;50.976;13.720;2023-01-29T22:10:19;98498.94;;;0.38;51.50
34983;BME280;21187;50.976;13.720;2023-01-29T22:15:22;98491.53;;;0.25;51.56
34983;BME280;21187;50.976;13.720;2023-01-29T22:20:24;98484.63;;;0.24;51.80
34983;BME280;21187;50.976;13.720;2023-01-29T22:25:31;98483.06;;;0.23;51.71
34983;BME280;21187;50.976;13.720;2023-01-29T22:30:34;98467.59;;;0.20;51.84
34983;BME280;21187;50.976;13.720;2023-01-29T22:35:36;98453.19;;;0.26;51.49
34983;BME280;21187;50.976;13.720;2023-01-29T22:40:38;98444.63;;;0.29;51.55
34983;BME280;21187;50.976;13.720;2023-01-29T22:45:40;98433.44;;;0.32;51.57
34983;BME280;21187;50.976;13.720;2023-01-29T22:50:43;98435.06;;;0.33;51.63
34983;BME280;21187;50.976;13.720;2023-01-29T22:55:54;98404.66;;;0.34;51.76
34983;BME280;21187;50.976;13.720;2023-01-29T23:00:56;98394.00;;;0.34;51.67
34983;BME280;21187;50.976;13.720;2023-01-29T23:05:58;98396.13;;;0.37;51.34
34983;BME280;21187;50.976;13.720;2023-01-29T23:11:07;98381.47;;;0.40;51.14
34983;BME280;21187;50.976;13.720;2023-01-29T23:16:17;98382.81;;;0.37;50.92
34983;BME280;21187;50.976;13.720;2023-01-29T23:21:21;98362.81;;;0.40;50.76
34983;BME280;21187;50.976;13.720;2023-01-29T23:26:23;98350.22;;;0.45;50.93
34983;BME280;21187;50.976;13.720;2023-01-29T23:31:44;98344.28;;;0.54;51.00
34983;BME280;21187;50.976;13.720;2023-01-29T23:36:46;98349.31;;;0.60;50.96
34983;BME280;21187;50.976;13.720;2023-01-29T23:41:48;98325.38;;;0.55;50.91
34983;BME280;21187;50.976;13.720;2023-01-29T23:46:50;98318.41;;;0.59;51.14
34983;BME280;21187;50.976;13.720;2023-01-29T23:51:51;98305.31;;;0.63;50.82
34983;BME280;21187;50.976;13.720;2023-01-29T23:56:54;98278.63;;;0.68;50.79
